Time;durP1;ratioP1;P1;durP2;ratioP2;P2;SDS_P1;SDS_P2;PMS_P1;PMS_P2;Temp;Humidity;BMP_temperature;BMP_pressure;BME280_temperature;BME280_humidity;BME280_pressure;Samples;Min_cycle;Max_cycle;Signal;HPM_P1;HPM_P2
2023/12/11 01:02:52;;;;;;;313.23;134.93;;;11.10;87.50;;;;;;747360;172;26593;-89
2023/12/11 01:05:19;;;;;;;257.13;115.73;;;11.10;87.40;;;;;;800544;178;26452;-89
2023/12/11 01:07:45;;;;;;;126.53;51.57;;;11.10;87.60;;;;;;800128;176;26422;-89
2023/12/11 01:10:12;;;;;;;156.33;60.70;;;11.10;86.80;;;;;;799102;177;26431;-88
2023/12/11 01:12:38;;;;;;;58.57;19.83;;;11.10;87.60;;;;;;776455;182;26485;-89
2023/12/11 01:15:06;;;;;;;88.87;31.30;;;11.10;87.60;;;;;;794665;180;27024;-89
2023/12/11 01:17:32;;;;;;;48.17;13.80;;;11.10;87.60;;;;;;794478;180;26430;-90
2023/12/11 01:19:59;;;;;;;30.03;8.23;;;11.10;87.80;;;;;;791835;180;26425;-89
2023/12/11 01:22:26;;;;;;;29.23;6.50;;;11.10;87.50;;;;;;788878;180;26481;-90
2023/12/11 01:24:52;;;;;;;44.63;14.17;;;11.20;87.40;;;;;;777231;184;26491;-90
2023/12/11 01:27:19;;;;;;;34.87;12.07;;;11.20;87.80;;;;;;773929;183;26476;-88
2023/12/11 01:29:45;;;;;;;26.53;8.23;;;11.20;87.50;;;;;;772149;183;27265;-90
2023/12/11 01:32:12;;;;;;;26.10;6.13;;;11.20;87.50;;;;;;780202;180;26543;-90
2023/12/11 01:34:39;;;;;;;35.00;5.90;;;11.10;88.10;;;;;;763480;186;26499;-88
2023/12/11 01:37:05;;;;;;;20.93;4.67;;;11.10;88.30;;;;;;785265;181;26447;-90
2023/12/11 01:39:32;;;;;;;26.53;4.97;;;11.20;88.20;;;;;;783819;180;26453;-88
2023/12/11 01:41:59;;;;;;;23.20;5.17;;;11.40;86.90;;;;;;793173;179;28083;-90
2023/12/11 01:44:25;;;;;;;25.87;4.40;;;11.40;87.10;;;;;;792864;181;28169;-90
2023/12/11 01:46:52;;;;;;;27.20;5.63;;;11.40;86.80;;;;;;792139;180;27029;-88
2023/12/11 01:49:18;;;;;;;25.80;4.73;;;11.40;86.50;;;;;;781654;180;26458;-89
2023/12/11 01:51:47;;;;;;;22.90;4.23;;;11.40;86.70;;;;;;762910;186;26498;-90
2023/12/11 01:54:12;;;;;;;37.40;13.23;;;11.40;87.50;;;;;;784980;181;27024;-89
2023/12/11 01:56:38;;;;;;;74.33;26.60;;;11.30;86.90;;;;;;775168;184;26481;-90
2023/12/11 01:59:05;;;;;;;54.50;18.23;;;11.30;87.30;;;;;;779387;181;26470;-89
2023/12/11 02:01:31;;;;;;;44.27;14.27;;;11.20;88.00;;;;;;788616;180;26453;-90
2023/12/11 02:03:58;;;;;;;25.93;8.50;;;11.30;88.60;;;;;;790608;181;27009;-90
2023/12/11 02:06:25;;;;;;;31.77;10.90;;;11.30;87.20;;;;;;784877;179;26452;-89
2023/12/11 02:08:51;;;;;;;33.20;7.27;;;11.40;87.00;;;;;;784580;179;26434;-90
2023/12/11 02:11:18;;;;;;;26.30;8.77;;;11.40;87.40;;;;;;794206;180;26454;-90
2023/12/11 02:13:45;;;;;;;23.47;4.13;;;11.40;86.00;;;;;;788560;181;26505;-89
2023/12/11 02:16:15;;;;;;;23.67;4.37;;;11.50;85.90;;;;;;785910;181;26447;-88
2023/12/11 02:18:41;;;;;;;18.10;4.33;;;11.50;85.90;;;;;;787417;179;26452;-88
2023/12/11 02:21:07;;;;;;;15.20;3.73;;;11.50;86.30;;;;;;789743;180;26558;-89
2023/12/11 02:26:33;;;;;;;21.63;4.17;;;11.50;86.40;;;;;;787298;181;26422;-89
2023/12/11 02:29:22;;;;;;;28.00;6.57;;;11.50;86.20;;;;;;784201;181;26438;-88
2023/12/11 02:35:04;;;;;;;21.23;5.47;;;11.50;85.50;;;;;;775835;184;26403;-89
2023/12/11 02:38:08;;;;;;;28.27;6.93;;;11.60;84.90;;;;;;776904;183;26547;-89
2023/12/11 02:41:05;;;;;;;;;;;;;;;;;;;;;
2023/12/11 02:46:51;;;;;;;24.87;5.40;;;11.60;85.10;;;;;;777419;185;27031;-90
2023/12/11 03:39:44;;;;;;;;;;;;;;;;;;;;;
2023/12/11 04:04:49;;;;;;;20.80;4.20;;;11.30;80.00;;;;;;762980;187;26579;-88
2023/12/11 04:10:24;;;;;;;20.13;3.87;;;11.40;79.40;;;;;;760968;188;27029;-88
2023/12/11 04:16:03;;;;;;;18.67;4.07;;;11.60;79.30;;;;;;761568;188;26600;-87
2023/12/11 04:19:29;;;;;;;;;;;;;;;;;;;;;
2023/12/11 04:36:00;;;;;;;18.93;4.10;;;11.30;78.80;;;;;;773047;184;26468;-89
2023/12/11 04:39:10;;;;;;;;;;;;;;;;;;;;;
2023/12/11 04:56:01;;;;;;;17.33;3.23;;;11.70;77.50;;;;;;748860;177;26980;-88
2023/12/11 05:04:30;;;;;;;17.17;4.47;;;11.70;77.50;;;;;;730850;174;27054;-87
2023/12/11 05:10:32;;;;;;;14.57;3.30;;;11.50;79.40;;;;;;749352;184;26626;-87
2023/12/11 05:35:36;;;;;;;20.70;4.03;;;11.10;87.60;;;;;;783852;180;26441;-89
2023/12/11 06:04:02;;;;;;;;;;;;;;;;;;;;;
2023/12/11 06:06:36;;;;;;;18.17;4.57;;;10.50;90.90;;;;;;780704;183;27429;-90
2023/12/11 06:17:34;;;;;;;20.57;3.33;;;10.30;91.20;;;;;;759904;188;26577;-93
2023/12/11 06:26:15;;;;;;;15.23;3.70;;;10.30;91.00;;;;;;765760;183;27557;-91
2023/12/11 06:29:01;;;;;;;18.57;3.83;;;10.20;91.20;;;;;;767003;182;26510;-90
2023/12/11 06:56:33;;;;;;;;;;;;;;;;;;;;;
2023/12/11 07:24:16;;;;;;;18.93;3.90;;;10.50;90.40;;;;;;773260;182;26510;-87
2023/12/11 07:27:24;;;;;;;17.67;4.07;;;10.60;90.50;;;;;;758262;183;26516;-89
2023/12/11 07:30:00;;;;;;;23.70;4.00;;;10.60;90.90;;;;;;757456;186;28469;-89
2023/12/11 07:38:17;;;;;;;18.97;4.23;;;10.70;90.20;;;;;;763013;187;26535;-90
2023/12/11 07:40:55;;;;;;;16.80;3.93;;;10.80;90.10;;;;;;763367;185;26505;-89
2023/12/11 13:57:01;;;;;;;18.00;8.67;;;10.10;93.90;;;;;;735549;177;26492;-87
2023/12/11 13:59:49;;;;;;;17.67;8.00;;;10.10;93.30;;;;;;808524;177;26448;-87
2023/12/11 14:02:24;;;;;;;21.67;9.80;;;10.10;93.80;;;;;;809522;176;26502;-86
2023/12/11 14:04:55;;;;;;;17.47;7.50;;;10.10;93.80;;;;;;833335;172;26983;-88
2023/12/11 14:07:28;;;;;;;22.63;11.10;;;10.10;93.80;;;;;;810337;177;26491;-88
2023/12/11 14:10:13;;;;;;;;;;;;;;;;;;;;;
2023/12/11 14:12:45;;;;;;;23.83;11.60;;;10.00;93.30;;;;;;812316;177;26933;-87
2023/12/11 14:15:19;;;;;;;22.93;10.60;;;10.00;94.30;;;;;;826254;172;26518;-86
2023/12/11 14:17:58;;;;;;;18.57;8.77;;;10.00;93.70;;;;;;827142;173;26456;-89
2023/12/11 14:20:35;;;;;;;63.53;27.83;;;10.10;93.90;;;;;;826821;173;26957;-87
2023/12/11 14:23:09;;;;;;;54.20;26.53;;;10.00;94.00;;;;;;826660;173;26399;-87
2023/12/11 14:25:50;;;;;;;16.97;7.23;;;10.00;93.60;;;;;;825760;174;26437;-87
2023/12/11 14:28:22;;;;;;;17.20;6.70;;;10.00;93.40;;;;;;825738;173;26463;-88
2023/12/11 14:31:01;;;;;;;30.93;12.40;;;10.00;93.80;;;;;;825981;173;26986;-87
2023/12/11 14:33:39;;;;;;;39.83;19.63;;;10.00;93.80;;;;;;825571;174;26420;-88
2023/12/11 14:39:21;;;;;;;;;;;;;;;;;;;;;
2023/12/11 14:41:47;;;;;;;21.47;8.97;;;10.00;93.20;;;;;;825312;173;26463;-88
2023/12/11 14:44:25;;;;;;;18.67;8.00;;;10.00;93.40;;;;;;825350;174;26969;-87
2023/12/11 14:46:52;;;;;;;13.57;4.50;;;10.00;93.60;;;;;;825383;174;26399;-88
2023/12/11 14:49:29;;;;;;;32.83;13.80;;;10.00;93.20;;;;;;825287;170;26419;-88
2023/12/11 14:52:03;;;;;;;21.40;10.03;;;10.00;93.20;;;;;;825047;174;26971;-88
2023/12/11 14:54:33;;;;;;;80.63;32.23;;;10.00;93.40;;;;;;824948;173;26426;-88
2023/12/11 14:57:08;;;;;;;34.40;12.43;;;10.00;93.40;;;;;;824717;174;26467;-88
2023/12/11 14:59:39;;;;;;;55.67;26.23;;;10.00;93.40;;;;;;824823;174;26417;-88
2023/12/11 15:02:12;;;;;;;38.40;16.60;;;10.00;93.60;;;;;;824907;170;26420;-88
2023/12/11 15:04:44;;;;;;;37.73;17.83;;;9.90;93.70;;;;;;825006;170;27085;-88
2023/12/11 15:07:15;;;;;;;29.10;13.30;;;9.90;93.60;;;;;;825020;174;26463;-89
2023/12/11 15:09:52;;;;;;;23.47;11.13;;;9.90;93.30;;;;;;824881;174;26431;-88
2023/12/11 15:12:44;;;;;;;41.97;21.00;;;9.90;93.80;;;;;;824900;174;26410;-88
2023/12/11 15:15:11;;;;;;;23.90;12.23;;;9.90;93.70;;;;;;825065;170;26987;-88
2023/12/11 15:17:37;;;;;;;38.43;15.77;;;9.90;93.60;;;;;;824872;170;26436;-89
2023/12/11 15:20:30;;;;;;;10.57;4.07;;;9.90;93.60;;;;;;825121;170;26958;-89
2023/12/11 15:23:11;;;;;;;53.47;24.23;;;9.90;93.40;;;;;;822153;173;26445;-88
2023/12/11 15:26:02;;;;;;;29.43;13.33;;;9.80;93.80;;;;;;825949;171;26464;-89
2023/12/11 15:28:34;;;;;;;28.20;12.27;;;9.70;93.70;;;;;;828633;173;26456;-88
2023/12/11 15:31:06;;;;;;;20.67;8.07;;;9.70;94.50;;;;;;829964;172;26433;-88
2023/12/11 15:33:47;;;;;;;47.57;21.10;;;9.60;94.60;;;;;;824833;173;26421;-87
2023/12/11 15:37:29;;;;;;;;;;;;;;;;;;;;;
2023/12/11 16:51:25;;;;;;;158.57;67.30;;;9.20;98.80;;;;;;787860;179;27057;-87
2023/12/11 16:53:51;;;;;;;147.43;65.17;;;9.20;98.70;;;;;;785002;179;26548;-89
2023/12/11 21:30:57;;;;;;;;;;;;;;;;;;;;;
2023/12/11 21:33:49;;;;;;;;;;;;;;;;;;;;;
